Terminal Aerodrome Forecast
Issued by NWS New Orleans/Baton Rouge, LA

Home | Current Version | Previous Version | Text Only | Print | Product List | Glossary On
Versions: 1 2 3 4 5 6 7 8 9 10 11 12 13 14 15
000
FTUS44 KLIX 211120
TAFNEW
TAF
KNEW 211120Z 2112/2212 32010KT P6SM SKC
     FM211500 36005KT P6SM VCTS SCT100CB
     FM211600 02005KT P6SM VCTS BKN100CB
     FM211700 08004KT P6SM VCTS BKN100CB
     FM212100 11005KT P6SM BKN100 PROB30 2121/2123 4SM -TSRA
      OVC040CB
     FM220200 18008KT P6SM SCT150
     FM220400 21009KT P6SM SCT200=

USA.gov is the U.S. government's official web portal to all federal, state and local government web resources and services.